sensor_id;sensor_type;location;lat;lon;timestamp;P1;durP1;ratioP1;P2;durP2;ratioP2
41305;SDS011;27051;50.376;19.152;2022-11-20T00:01:03;272.30;;;100.47;;
41305;SDS011;27051;50.376;19.152;2022-11-20T00:03:34;221.20;;;86.27;;
41305;SDS011;27051;50.376;19.152;2022-11-20T00:06:01;199.27;;;79.93;;
41305;SDS011;27051;50.376;19.152;2022-11-20T00:08:29;166.80;;;71.87;;
41305;SDS011;27051;50.376;19.152;2022-11-20T00:10:55;160.60;;;68.07;;
41305;SDS011;27051;50.376;19.152;2022-11-20T00:13:20;154.15;;;68.20;;
41305;SDS011;27051;50.376;19.152;2022-11-20T00:15:46;148.47;;;64.63;;
41305;SDS011;27051;50.376;19.152;2022-11-20T00:18:12;155.00;;;64.55;;
41305;SDS011;27051;50.376;19.152;2022-11-20T00:20:37;147.27;;;64.60;;
41305;SDS011;27051;50.376;19.152;2022-11-20T00:23:03;133.10;;;57.13;;
41305;SDS011;27051;50.376;19.152;2022-11-20T00:25:29;133.60;;;56.07;;
41305;SDS011;27051;50.376;19.152;2022-11-20T00:27:54;118.67;;;55.03;;
41305;SDS011;27051;50.376;19.152;2022-11-20T00:30:20;115.10;;;50.83;;
41305;SDS011;27051;50.376;19.152;2022-11-20T00:32:46;123.57;;;52.83;;
41305;SDS011;27051;50.376;19.152;2022-11-20T00:35:11;112.10;;;50.87;;
41305;SDS011;27051;50.376;19.152;2022-11-20T00:37:37;119.43;;;52.87;;
41305;SDS011;27051;50.376;19.152;2022-11-20T00:40:03;111.03;;;49.37;;
41305;SDS011;27051;50.376;19.152;2022-11-20T00:42:30;114.50;;;51.10;;
41305;SDS011;27051;50.376;19.152;2022-11-20T00:44:55;109.97;;;51.43;;
41305;SDS011;27051;50.376;19.152;2022-11-20T00:47:21;110.00;;;50.67;;
41305;SDS011;27051;50.376;19.152;2022-11-20T00:49:46;103.57;;;48.57;;
41305;SDS011;27051;50.376;19.152;2022-11-20T00:52:12;111.43;;;50.00;;
41305;SDS011;27051;50.376;19.152;2022-11-20T00:54:38;104.77;;;45.17;;
41305;SDS011;27051;50.376;19.152;2022-11-20T00:57:03;113.50;;;50.87;;
41305;SDS011;27051;50.376;19.152;2022-11-20T00:59:29;110.03;;;50.23;;
41305;SDS011;27051;50.376;19.152;2022-11-20T01:01:55;110.60;;;49.35;;
41305;SDS011;27051;50.376;19.152;2022-11-20T01:04:20;109.83;;;48.50;;
41305;SDS011;27051;50.376;19.152;2022-11-20T01:06:46;104.70;;;49.17;;
41305;SDS011;27051;50.376;19.152;2022-11-20T01:09:13;112.23;;;51.10;;
41305;SDS011;27051;50.376;19.152;2022-11-20T01:11:40;115.33;;;49.93;;
41305;SDS011;27051;50.376;19.152;2022-11-20T01:14:10;120.37;;;52.00;;
41305;SDS011;27051;50.376;19.152;2022-11-20T01:16:40;131.93;;;55.00;;
41305;SDS011;27051;50.376;19.152;2022-11-20T01:19:13;166.50;;;72.80;;
41305;SDS011;27051;50.376;19.152;2022-11-20T01:21:42;152.90;;;65.93;;
41305;SDS011;27051;50.376;19.152;2022-11-20T01:24:11;149.53;;;61.30;;
41305;SDS011;27051;50.376;19.152;2022-11-20T01:26:39;142.30;;;60.67;;
41305;SDS011;27051;50.376;19.152;2022-11-20T01:29:12;139.33;;;60.10;;
41305;SDS011;27051;50.376;19.152;2022-11-20T01:31:41;150.67;;;64.37;;
41305;SDS011;27051;50.376;19.152;2022-11-20T01:34:10;160.03;;;64.80;;
41305;SDS011;27051;50.376;19.152;2022-11-20T01:36:37;144.10;;;61.60;;
41305;SDS011;27051;50.376;19.152;2022-11-20T01:39:06;147.80;;;61.13;;
41305;SDS011;27051;50.376;19.152;2022-11-20T01:41:38;125.00;;;53.30;;
41305;SDS011;27051;50.376;19.152;2022-11-20T01:44:05;135.40;;;54.20;;
41305;SDS011;27051;50.376;19.152;2022-11-20T01:46:32;135.83;;;62.30;;
41305;SDS011;27051;50.376;19.152;2022-11-20T01:49:02;127.50;;;55.47;;
41305;SDS011;27051;50.376;19.152;2022-11-20T01:54:28;142.57;;;61.27;;
41305;SDS011;27051;50.376;19.152;2022-11-20T01:56:56;147.93;;;62.93;;
41305;SDS011;27051;50.376;19.152;2022-11-20T01:59:24;139.47;;;59.83;;
41305;SDS011;27051;50.376;19.152;2022-11-20T02:01:53;139.67;;;56.73;;
41305;SDS011;27051;50.376;19.152;2022-11-20T02:04:20;145.13;;;63.57;;
41305;SDS011;27051;50.376;19.152;2022-11-20T02:06:59;145.73;;;59.60;;
41305;SDS011;27051;50.376;19.152;2022-11-20T02:09:27;131.57;;;57.53;;
41305;SDS011;27051;50.376;19.152;2022-11-20T02:11:53;127.97;;;56.77;;
41305;SDS011;27051;50.376;19.152;2022-11-20T02:14:21;131.93;;;56.30;;
41305;SDS011;27051;50.376;19.152;2022-11-20T02:16:48;126.93;;;56.27;;
41305;SDS011;27051;50.376;19.152;2022-11-20T02:19:23;132.23;;;56.07;;
41305;SDS011;27051;50.376;19.152;2022-11-20T02:24:42;127.70;;;54.23;;
41305;SDS011;27051;50.376;19.152;2022-11-20T02:27:11;125.70;;;55.27;;
41305;SDS011;27051;50.376;19.152;2022-11-20T02:35:06;131.70;;;59.17;;
41305;SDS011;27051;50.376;19.152;2022-11-20T02:37:46;125.63;;;56.93;;
41305;SDS011;27051;50.376;19.152;2022-11-20T02:40:14;135.13;;;56.20;;
41305;SDS011;27051;50.376;19.152;2022-11-20T02:42:40;130.60;;;56.60;;
41305;SDS011;27051;50.376;19.152;2022-11-20T02:45:06;120.67;;;53.03;;
41305;SDS011;27051;50.376;19.152;2022-11-20T02:47:33;127.07;;;55.17;;
41305;SDS011;27051;50.376;19.152;2022-11-20T02:49:59;117.23;;;51.20;;
41305;SDS011;27051;50.376;19.152;2022-11-20T02:52:25;116.53;;;51.93;;
41305;SDS011;27051;50.376;19.152;2022-11-20T02:54:51;129.30;;;53.73;;
41305;SDS011;27051;50.376;19.152;2022-11-20T02:57:17;133.73;;;56.80;;
41305;SDS011;27051;50.376;19.152;2022-11-20T02:59:43;126.27;;;58.87;;
41305;SDS011;27051;50.376;19.152;2022-11-20T03:02:08;136.97;;;57.23;;
41305;SDS011;27051;50.376;19.152;2022-11-20T03:04:34;375.63;;;186.60;;
41305;SDS011;27051;50.376;19.152;2022-11-20T03:07:00;445.63;;;233.93;;
41305;SDS011;27051;50.376;19.152;2022-11-20T03:09:25;340.00;;;142.13;;
41305;SDS011;27051;50.376;19.152;2022-11-20T03:11:51;160.07;;;69.93;;
41305;SDS011;27051;50.376;19.152;2022-11-20T03:14:17;148.03;;;63.10;;
41305;SDS011;27051;50.376;19.152;2022-11-20T03:16:42;135.77;;;57.73;;
41305;SDS011;27051;50.376;19.152;2022-11-20T03:19:08;149.12;;;65.42;;
41305;SDS011;27051;50.376;19.152;2022-11-20T03:21:34;144.03;;;62.00;;
41305;SDS011;27051;50.376;19.152;2022-11-20T03:24:00;148.27;;;61.33;;
41305;SDS011;27051;50.376;19.152;2022-11-20T03:26:27;164.60;;;70.13;;
41305;SDS011;27051;50.376;19.152;2022-11-20T03:28:54;171.23;;;75.27;;
41305;SDS011;27051;50.376;19.152;2022-11-20T03:31:24;176.60;;;74.60;;
41305;SDS011;27051;50.376;19.152;2022-11-20T03:34:00;157.53;;;70.63;;
41305;SDS011;27051;50.376;19.152;2022-11-20T03:36:27;152.57;;;63.20;;
41305;SDS011;27051;50.376;19.152;2022-11-20T03:38:54;151.50;;;66.00;;
41305;SDS011;27051;50.376;19.152;2022-11-20T03:41:22;141.23;;;60.90;;
41305;SDS011;27051;50.376;19.152;2022-11-20T03:43:51;148.07;;;61.17;;
41305;SDS011;27051;50.376;19.152;2022-11-20T03:46:20;152.00;;;62.73;;
41305;SDS011;27051;50.376;19.152;2022-11-20T03:48:47;139.37;;;58.80;;
41305;SDS011;27051;50.376;19.152;2022-11-20T03:51:17;151.40;;;65.03;;
41305;SDS011;27051;50.376;19.152;2022-11-20T03:53:46;143.43;;;60.77;;
41305;SDS011;27051;50.376;19.152;2022-11-20T03:56:15;151.30;;;61.93;;
41305;SDS011;27051;50.376;19.152;2022-11-20T03:58:44;147.53;;;69.17;;
41305;SDS011;27051;50.376;19.152;2022-11-20T04:01:14;161.13;;;68.03;;
41305;SDS011;27051;50.376;19.152;2022-11-20T04:03:43;129.57;;;59.73;;
41305;SDS011;27051;50.376;19.152;2022-11-20T04:06:10;125.80;;;53.80;;
41305;SDS011;27051;50.376;19.152;2022-11-20T04:08:39;116.17;;;52.50;;
41305;SDS011;27051;50.376;19.152;2022-11-20T04:11:17;130.10;;;55.23;;
41305;SDS011;27051;50.376;19.152;2022-11-20T04:13:49;131.90;;;58.13;;
41305;SDS011;27051;50.376;19.152;2022-11-20T04:16:18;131.03;;;54.27;;
41305;SDS011;27051;50.376;19.152;2022-11-20T04:18:45;124.83;;;52.50;;
41305;SDS011;27051;50.376;19.152;2022-11-20T04:21:11;132.03;;;54.30;;
41305;SDS011;27051;50.376;19.152;2022-11-20T04:23:37;128.07;;;57.43;;
41305;SDS011;27051;50.376;19.152;2022-11-20T04:26:04;132.13;;;59.10;;
41305;SDS011;27051;50.376;19.152;2022-11-20T04:28:36;131.15;;;56.58;;
41305;SDS011;27051;50.376;19.152;2022-11-20T04:31:06;110.60;;;46.53;;
41305;SDS011;27051;50.376;19.152;2022-11-20T04:33:38;119.00;;;50.10;;
41305;SDS011;27051;50.376;19.152;2022-11-20T04:38:50;114.47;;;52.95;;
41305;SDS011;27051;50.376;19.152;2022-11-20T04:41:23;119.33;;;50.20;;
41305;SDS011;27051;50.376;19.152;2022-11-20T04:43:56;120.33;;;52.33;;
41305;SDS011;27051;50.376;19.152;2022-11-20T04:46:25;119.53;;;50.80;;
41305;SDS011;27051;50.376;19.152;2022-11-20T04:48:52;125.17;;;53.13;;
41305;SDS011;27051;50.376;19.152;2022-11-20T04:51:18;115.30;;;49.60;;
41305;SDS011;27051;50.376;19.152;2022-11-20T04:53:44;109.10;;;48.03;;
41305;SDS011;27051;50.376;19.152;2022-11-20T04:56:10;121.67;;;51.60;;
41305;SDS011;27051;50.376;19.152;2022-11-20T04:58:37;109.00;;;47.50;;
41305;SDS011;27051;50.376;19.152;2022-11-20T05:01:08;117.07;;;52.73;;
41305;SDS011;27051;50.376;19.152;2022-11-20T05:03:40;135.93;;;63.23;;
41305;SDS011;27051;50.376;19.152;2022-11-20T05:06:09;133.93;;;64.03;;
41305;SDS011;27051;50.376;19.152;2022-11-20T05:08:38;129.90;;;55.50;;
41305;SDS011;27051;50.376;19.152;2022-11-20T05:11:05;127.33;;;54.03;;
41305;SDS011;27051;50.376;19.152;2022-11-20T05:13:34;120.00;;;50.27;;
41305;SDS011;27051;50.376;19.152;2022-11-20T05:16:02;146.77;;;60.70;;
41305;SDS011;27051;50.376;19.152;2022-11-20T05:18:29;178.97;;;66.87;;
41305;SDS011;27051;50.376;19.152;2022-11-20T05:20:58;165.40;;;66.00;;
41305;SDS011;27051;50.376;19.152;2022-11-20T05:23:24;150.17;;;61.30;;
41305;SDS011;27051;50.376;19.152;2022-11-20T05:25:53;138.77;;;57.43;;
41305;SDS011;27051;50.376;19.152;2022-11-20T05:28:20;134.47;;;57.20;;
41305;SDS011;27051;50.376;19.152;2022-11-20T05:30:47;147.50;;;62.87;;
41305;SDS011;27051;50.376;19.152;2022-11-20T05:33:14;141.73;;;61.97;;
41305;SDS011;27051;50.376;19.152;2022-11-20T05:35:40;127.57;;;56.57;;
41305;SDS011;27051;50.376;19.152;2022-11-20T05:38:06;121.30;;;54.57;;
41305;SDS011;27051;50.376;19.152;2022-11-20T05:40:32;139.35;;;57.15;;
41305;SDS011;27051;50.376;19.152;2022-11-20T05:42:58;124.73;;;54.30;;
41305;SDS011;27051;50.376;19.152;2022-11-20T05:45:24;122.10;;;53.47;;
41305;SDS011;27051;50.376;19.152;2022-11-20T05:47:50;113.33;;;50.77;;
41305;SDS011;27051;50.376;19.152;2022-11-20T05:50:16;132.43;;;58.23;;
41305;SDS011;27051;50.376;19.152;2022-11-20T05:52:41;130.00;;;53.67;;
41305;SDS011;27051;50.376;19.152;2022-11-20T05:55:07;128.40;;;55.77;;
41305;SDS011;27051;50.376;19.152;2022-11-20T05:57:34;130.13;;;55.90;;
41305;SDS011;27051;50.376;19.152;2022-11-20T06:00:00;118.37;;;51.10;;
41305;SDS011;27051;50.376;19.152;2022-11-20T06:02:26;128.10;;;52.97;;
41305;SDS011;27051;50.376;19.152;2022-11-20T06:04:52;122.00;;;53.33;;
41305;SDS011;27051;50.376;19.152;2022-11-20T06:07:18;113.37;;;48.73;;
41305;SDS011;27051;50.376;19.152;2022-11-20T06:09:43;118.17;;;52.93;;
41305;SDS011;27051;50.376;19.152;2022-11-20T06:12:12;120.07;;;51.03;;
41305;SDS011;27051;50.376;19.152;2022-11-20T06:14:37;102.40;;;46.93;;
41305;SDS011;27051;50.376;19.152;2022-11-20T06:17:03;108.97;;;50.80;;
41305;SDS011;27051;50.376;19.152;2022-11-20T06:19:29;99.77;;;44.80;;
41305;SDS011;27051;50.376;19.152;2022-11-20T06:21:54;106.97;;;47.13;;
41305;SDS011;27051;50.376;19.152;2022-11-20T06:24:20;108.50;;;49.00;;
41305;SDS011;27051;50.376;19.152;2022-11-20T06:26:46;98.13;;;45.03;;
41305;SDS011;27051;50.376;19.152;2022-11-20T06:29:12;111.03;;;49.97;;
41305;SDS011;27051;50.376;19.152;2022-11-20T06:31:37;111.73;;;48.73;;
41305;SDS011;27051;50.376;19.152;2022-11-20T06:34:03;162.70;;;68.95;;
41305;SDS011;27051;50.376;19.152;2022-11-20T06:36:30;145.47;;;67.10;;
41305;SDS011;27051;50.376;19.152;2022-11-20T06:38:56;189.40;;;91.10;;
41305;SDS011;27051;50.376;19.152;2022-11-20T06:41:21;184.93;;;87.43;;
41305;SDS011;27051;50.376;19.152;2022-11-20T06:43:47;209.47;;;95.83;;
41305;SDS011;27051;50.376;19.152;2022-11-20T06:46:13;168.40;;;82.00;;
41305;SDS011;27051;50.376;19.152;2022-11-20T06:48:40;167.60;;;80.10;;
41305;SDS011;27051;50.376;19.152;2022-11-20T06:51:06;155.70;;;74.43;;
41305;SDS011;27051;50.376;19.152;2022-11-20T06:53:33;145.67;;;66.47;;
41305;SDS011;27051;50.376;19.152;2022-11-20T06:55:59;121.67;;;57.13;;
41305;SDS011;27051;50.376;19.152;2022-11-20T06:58:28;114.03;;;51.07;;
41305;SDS011;27051;50.376;19.152;2022-11-20T07:00:59;104.67;;;50.87;;
41305;SDS011;27051;50.376;19.152;2022-11-20T07:03:27;160.52;;;64.17;;
41305;SDS011;27051;50.376;19.152;2022-11-20T07:05:56;169.47;;;67.03;;
41305;SDS011;27051;50.376;19.152;2022-11-20T07:08:23;383.83;;;160.63;;
41305;SDS011;27051;50.376;19.152;2022-11-20T07:10:50;495.27;;;239.73;;
41305;SDS011;27051;50.376;19.152;2022-11-20T07:13:16;378.73;;;177.40;;
41305;SDS011;27051;50.376;19.152;2022-11-20T07:15:41;332.87;;;139.47;;
41305;SDS011;27051;50.376;19.152;2022-11-20T07:18:07;250.90;;;104.40;;
41305;SDS011;27051;50.376;19.152;2022-11-20T07:20:32;172.47;;;74.00;;
41305;SDS011;27051;50.376;19.152;2022-11-20T07:22:58;161.53;;;70.67;;
41305;SDS011;27051;50.376;19.152;2022-11-20T07:25:24;176.33;;;70.37;;
41305;SDS011;27051;50.376;19.152;2022-11-20T07:27:51;181.20;;;75.17;;
41305;SDS011;27051;50.376;19.152;2022-11-20T07:30:17;182.85;;;73.37;;
41305;SDS011;27051;50.376;19.152;2022-11-20T07:32:47;159.93;;;69.67;;
41305;SDS011;27051;50.376;19.152;2022-11-20T07:35:18;173.10;;;70.93;;
41305;SDS011;27051;50.376;19.152;2022-11-20T07:37:45;162.23;;;70.17;;
41305;SDS011;27051;50.376;19.152;2022-11-20T07:40:11;154.40;;;69.73;;
41305;SDS011;27051;50.376;19.152;2022-11-20T07:42:38;155.93;;;66.57;;
41305;SDS011;27051;50.376;19.152;2022-11-20T07:45:04;137.20;;;57.77;;
41305;SDS011;27051;50.376;19.152;2022-11-20T07:47:36;148.83;;;60.27;;
41305;SDS011;27051;50.376;19.152;2022-11-20T07:50:02;147.70;;;62.85;;
41305;SDS011;27051;50.376;19.152;2022-11-20T07:52:28;150.33;;;64.07;;
41305;SDS011;27051;50.376;19.152;2022-11-20T07:54:54;133.70;;;61.17;;
41305;SDS011;27051;50.376;19.152;2022-11-20T07:57:20;144.93;;;65.25;;
41305;SDS011;27051;50.376;19.152;2022-11-20T07:59:45;140.10;;;63.87;;
41305;SDS011;27051;50.376;19.152;2022-11-20T08:02:11;149.00;;;64.60;;
41305;SDS011;27051;50.376;19.152;2022-11-20T08:04:36;148.17;;;61.67;;
41305;SDS011;27051;50.376;19.152;2022-11-20T08:07:02;150.18;;;65.80;;
41305;SDS011;27051;50.376;19.152;2022-11-20T08:09:28;147.43;;;63.97;;
41305;SDS011;27051;50.376;19.152;2022-11-20T08:11:53;146.07;;;61.33;;
41305;SDS011;27051;50.376;19.152;2022-11-20T08:14:19;156.72;;;70.57;;
41305;SDS011;27051;50.376;19.152;2022-11-20T08:16:46;160.93;;;67.50;;
41305;SDS011;27051;50.376;19.152;2022-11-20T08:19:14;167.87;;;77.97;;
41305;SDS011;27051;50.376;19.152;2022-11-20T08:21:44;166.90;;;73.37;;
41305;SDS011;27051;50.376;19.152;2022-11-20T08:24:09;159.93;;;70.17;;
41305;SDS011;27051;50.376;19.152;2022-11-20T08:26:36;152.00;;;71.33;;
41305;SDS011;27051;50.376;19.152;2022-11-20T08:29:03;137.00;;;61.05;;
41305;SDS011;27051;50.376;19.152;2022-11-20T08:31:30;146.68;;;68.25;;
41305;SDS011;27051;50.376;19.152;2022-11-20T08:33:56;160.78;;;72.20;;
41305;SDS011;27051;50.376;19.152;2022-11-20T08:36:23;151.60;;;70.25;;
41305;SDS011;27051;50.376;19.152;2022-11-20T08:38:50;140.97;;;66.35;;
41305;SDS011;27051;50.376;19.152;2022-11-20T08:41:20;147.53;;;72.95;;
41305;SDS011;27051;50.376;19.152;2022-11-20T08:43:46;162.75;;;79.17;;
41305;SDS011;27051;50.376;19.152;2022-11-20T08:46:12;155.70;;;78.20;;
41305;SDS011;27051;50.376;19.152;2022-11-20T08:48:38;159.07;;;74.83;;
41305;SDS011;27051;50.376;19.152;2022-11-20T08:51:04;125.33;;;63.93;;
41305;SDS011;27051;50.376;19.152;2022-11-20T08:53:30;125.23;;;60.47;;
41305;SDS011;27051;50.376;19.152;2022-11-20T08:55:57;102.00;;;51.30;;
41305;SDS011;27051;50.376;19.152;2022-11-20T08:58:24;101.27;;;49.18;;
41305;SDS011;27051;50.376;19.152;2022-11-20T09:00:50;101.72;;;53.58;;
41305;SDS011;27051;50.376;19.152;2022-11-20T09:03:16;106.57;;;56.03;;
41305;SDS011;27051;50.376;19.152;2022-11-20T09:05:42;107.50;;;57.27;;
41305;SDS011;27051;50.376;19.152;2022-11-20T09:08:07;106.53;;;57.10;;
41305;SDS011;27051;50.376;19.152;2022-11-20T09:10:33;107.93;;;57.73;;
41305;SDS011;27051;50.376;19.152;2022-11-20T09:12:59;118.57;;;61.43;;
41305;SDS011;27051;50.376;19.152;2022-11-20T09:15:25;98.75;;;53.75;;
41305;SDS011;27051;50.376;19.152;2022-11-20T09:17:55;108.80;;;56.13;;
41305;SDS011;27051;50.376;19.152;2022-11-20T09:20:24;107.43;;;53.68;;
41305;SDS011;27051;50.376;19.152;2022-11-20T09:22:51;121.42;;;63.75;;
41305;SDS011;27051;50.376;19.152;2022-11-20T09:25:17;129.33;;;67.40;;
41305;SDS011;27051;50.376;19.152;2022-11-20T09:27:43;128.60;;;64.77;;
41305;SDS011;27051;50.376;19.152;2022-11-20T09:30:09;159.73;;;71.87;;
41305;SDS011;27051;50.376;19.152;2022-11-20T09:32:36;147.00;;;75.90;;
41305;SDS011;27051;50.376;19.152;2022-11-20T09:35:04;117.00;;;60.33;;
41305;SDS011;27051;50.376;19.152;2022-11-20T09:37:31;125.67;;;64.07;;
41305;SDS011;27051;50.376;19.152;2022-11-20T09:39:57;113.77;;;61.47;;
41305;SDS011;27051;50.376;19.152;2022-11-20T09:45:21;121.37;;;66.30;;
41305;SDS011;27051;50.376;19.152;2022-11-20T09:47:58;118.80;;;61.42;;
41305;SDS011;27051;50.376;19.152;2022-11-20T09:50:38;154.87;;;70.32;;
41305;SDS011;27051;50.376;19.152;2022-11-20T09:56:03;128.10;;;61.75;;
41305;SDS011;27051;50.376;19.152;2022-11-20T09:58:42;99.52;;;51.08;;
41305;SDS011;27051;50.376;19.152;2022-11-20T10:01:15;108.97;;;57.67;;
41305;SDS011;27051;50.376;19.152;2022-11-20T10:04:03;101.60;;;56.58;;
41305;SDS011;27051;50.376;19.152;2022-11-20T10:06:39;120.87;;;62.70;;
41305;SDS011;27051;50.376;19.152;2022-11-20T10:09:27;112.88;;;55.85;;
41305;SDS011;27051;50.376;19.152;2022-11-20T10:18:22;107.37;;;57.40;;
41305;SDS011;27051;50.376;19.152;2022-11-20T10:29:39;102.75;;;53.95;;
41305;SDS011;27051;50.376;19.152;2022-11-20T10:32:14;100.30;;;53.90;;
41305;SDS011;27051;50.376;19.152;2022-11-20T10:37:21;100.55;;;53.38;;
41305;SDS011;27051;50.376;19.152;2022-11-20T10:43:12;90.60;;;48.92;;
41305;SDS011;27051;50.376;19.152;2022-11-20T10:45:57;89.03;;;47.13;;
41305;SDS011;27051;50.376;19.152;2022-11-20T10:50:59;128.53;;;57.35;;
41305;SDS011;27051;50.376;19.152;2022-11-20T10:57:05;152.78;;;71.25;;
41305;SDS011;27051;50.376;19.152;2022-11-20T10:59:41;97.67;;;50.33;;
41305;SDS011;27051;50.376;19.152;2022-11-20T11:02:19;103.97;;;50.10;;
41305;SDS011;27051;50.376;19.152;2022-11-20T11:05:04;96.53;;;48.78;;
41305;SDS011;27051;50.376;19.152;2022-11-20T11:07:44;87.92;;;46.50;;
41305;SDS011;27051;50.376;19.152;2022-11-20T11:10:14;85.90;;;46.23;;
41305;SDS011;27051;50.376;19.152;2022-11-20T11:12:53;90.65;;;50.20;;
41305;SDS011;27051;50.376;19.152;2022-11-20T11:15:29;90.20;;;47.23;;
41305;SDS011;27051;50.376;19.152;2022-11-20T11:18:04;97.00;;;50.10;;
41305;SDS011;27051;50.376;19.152;2022-11-20T11:20:30;92.55;;;52.35;;
41305;SDS011;27051;50.376;19.152;2022-11-20T11:22:57;88.50;;;46.67;;
41305;SDS011;27051;50.376;19.152;2022-11-20T11:28:01;87.78;;;46.20;;
41305;SDS011;27051;50.376;19.152;2022-11-20T11:30:29;92.08;;;47.83;;
41305;SDS011;27051;50.376;19.152;2022-11-20T11:33:11;84.32;;;46.68;;
41305;SDS011;27051;50.376;19.152;2022-11-20T11:36:01;92.27;;;49.10;;
41305;SDS011;27051;50.376;19.152;2022-11-20T11:38:32;84.60;;;48.28;;
41305;SDS011;27051;50.376;19.152;2022-11-20T11:41:01;100.35;;;55.52;;
41305;SDS011;27051;50.376;19.152;2022-11-20T11:43:29;96.20;;;50.58;;
41305;SDS011;27051;50.376;19.152;2022-11-20T11:46:02;143.20;;;70.12;;
41305;SDS011;27051;50.376;19.152;2022-11-20T11:48:30;112.45;;;57.98;;
41305;SDS011;27051;50.376;19.152;2022-11-20T11:50:55;84.10;;;46.47;;
41305;SDS011;27051;50.376;19.152;2022-11-20T11:53:21;89.62;;;49.77;;
41305;SDS011;27051;50.376;19.152;2022-11-20T11:55:58;93.67;;;50.05;;
41305;SDS011;27051;50.376;19.152;2022-11-20T12:03:58;98.17;;;53.90;;
41305;SDS011;27051;50.376;19.152;2022-11-20T12:06:42;83.80;;;47.98;;
41305;SDS011;27051;50.376;19.152;2022-11-20T12:09:11;96.87;;;57.03;;
41305;SDS011;27051;50.376;19.152;2022-11-20T12:11:38;87.17;;;51.33;;
41305;SDS011;27051;50.376;19.152;2022-11-20T12:17:03;83.62;;;49.73;;
41305;SDS011;27051;50.376;19.152;2022-11-20T12:19:31;78.55;;;47.55;;
41305;SDS011;27051;50.376;19.152;2022-11-20T12:22:05;87.55;;;52.48;;
41305;SDS011;27051;50.376;19.152;2022-11-20T12:25:14;92.53;;;55.48;;
41305;SDS011;27051;50.376;19.152;2022-11-20T12:30:55;96.00;;;57.43;;
41305;SDS011;27051;50.376;19.152;2022-11-20T12:36:16;93.50;;;56.08;;
41305;SDS011;27051;50.376;19.152;2022-11-20T12:45:01;78.50;;;45.05;;
41305;SDS011;27051;50.376;19.152;2022-11-20T12:56:30;74.62;;;42.70;;
41305;SDS011;27051;50.376;19.152;2022-11-20T13:02:03;92.65;;;56.25;;
41305;SDS011;27051;50.376;19.152;2022-11-20T13:07:40;85.75;;;53.05;;
41305;SDS011;27051;50.376;19.152;2022-11-20T13:10:14;73.92;;;43.48;;
41305;SDS011;27051;50.376;19.152;2022-11-20T13:12:56;74.07;;;46.63;;
41305;SDS011;27051;50.376;19.152;2022-11-20T13:15:41;81.47;;;53.73;;
41305;SDS011;27051;50.376;19.152;2022-11-20T13:18:12;65.08;;;41.08;;
41305;SDS011;27051;50.376;19.152;2022-11-20T13:20:45;62.70;;;39.85;;
41305;SDS011;27051;50.376;19.152;2022-11-20T13:23:11;82.50;;;49.42;;
41305;SDS011;27051;50.376;19.152;2022-11-20T13:25:48;80.28;;;50.65;;
41305;SDS011;27051;50.376;19.152;2022-11-20T13:30:49;71.72;;;46.00;;
41305;SDS011;27051;50.376;19.152;2022-11-20T13:36:04;66.95;;;43.70;;
41305;SDS011;27051;50.376;19.152;2022-11-20T13:38:50;68.10;;;42.38;;
41305;SDS011;27051;50.376;19.152;2022-11-20T13:41:28;69.92;;;46.63;;
41305;SDS011;27051;50.376;19.152;2022-11-20T13:46:36;62.93;;;39.83;;
41305;SDS011;27051;50.376;19.152;2022-11-20T13:49:09;73.28;;;45.45;;
41305;SDS011;27051;50.376;19.152;2022-11-20T13:51:53;89.10;;;52.55;;
41305;SDS011;27051;50.376;19.152;2022-11-20T13:54:29;121.67;;;65.55;;
41305;SDS011;27051;50.376;19.152;2022-11-20T13:57:07;96.02;;;53.75;;
41305;SDS011;27051;50.376;19.152;2022-11-20T14:02:42;95.53;;;59.60;;
41305;SDS011;27051;50.376;19.152;2022-11-20T14:05:17;82.17;;;49.40;;
41305;SDS011;27051;50.376;19.152;2022-11-20T14:07:45;92.33;;;57.35;;
41305;SDS011;27051;50.376;19.152;2022-11-20T14:10:21;104.12;;;66.85;;
41305;SDS011;27051;50.376;19.152;2022-11-20T14:12:50;107.00;;;66.50;;
41305;SDS011;27051;50.376;19.152;2022-11-20T14:15:56;87.23;;;51.10;;
41305;SDS011;27051;50.376;19.152;2022-11-20T14:17:58;92.55;;;56.08;;
41305;SDS011;27051;50.376;19.152;2022-11-20T14:20:26;94.17;;;51.98;;
41305;SDS011;27051;50.376;19.152;2022-11-20T14:22:54;90.40;;;49.20;;
41305;SDS011;27051;50.376;19.152;2022-11-20T14:25:24;94.67;;;51.85;;
41305;SDS011;27051;50.376;19.152;2022-11-20T14:27:55;100.53;;;50.35;;
41305;SDS011;27051;50.376;19.152;2022-11-20T14:32:53;119.15;;;57.70;;
41305;SDS011;27051;50.376;19.152;2022-11-20T14:35:29;127.07;;;66.28;;
41305;SDS011;27051;50.376;19.152;2022-11-20T14:37:59;104.20;;;59.08;;
41305;SDS011;27051;50.376;19.152;2022-11-20T14:42:58;119.67;;;62.50;;
41305;SDS011;27051;50.376;19.152;2022-11-20T14:45:25;105.25;;;57.70;;
41305;SDS011;27051;50.376;19.152;2022-11-20T14:47:52;107.20;;;56.53;;
41305;SDS011;27051;50.376;19.152;2022-11-20T14:50:26;109.17;;;55.65;;
41305;SDS011;27051;50.376;19.152;2022-11-20T14:52:55;120.92;;;59.75;;
41305;SDS011;27051;50.376;19.152;2022-11-20T14:55:27;119.90;;;62.50;;
41305;SDS011;27051;50.376;19.152;2022-11-20T14:58:01;111.55;;;55.03;;
41305;SDS011;27051;50.376;19.152;2022-11-20T15:00:31;96.75;;;50.63;;
41305;SDS011;27051;50.376;19.152;2022-11-20T15:02:59;89.75;;;43.48;;
41305;SDS011;27051;50.376;19.152;2022-11-20T15:05:37;92.33;;;46.23;;
41305;SDS011;27051;50.376;19.152;2022-11-20T15:08:11;107.17;;;51.30;;
41305;SDS011;27051;50.376;19.152;2022-11-20T15:10:38;112.52;;;59.08;;
41305;SDS011;27051;50.376;19.152;2022-11-20T15:13:19;110.42;;;54.67;;
41305;SDS011;27051;50.376;19.152;2022-11-20T15:15:46;111.52;;;55.45;;
41305;SDS011;27051;50.376;19.152;2022-11-20T15:18:17;123.70;;;62.38;;
41305;SDS011;27051;50.376;19.152;2022-11-20T15:20:54;130.27;;;63.73;;
41305;SDS011;27051;50.376;19.152;2022-11-20T15:23:21;129.05;;;62.83;;
41305;SDS011;27051;50.376;19.152;2022-11-20T15:25:48;133.52;;;62.48;;
41305;SDS011;27051;50.376;19.152;2022-11-20T15:28:16;119.60;;;58.28;;
41305;SDS011;27051;50.376;19.152;2022-11-20T15:30:57;124.47;;;59.00;;
41305;SDS011;27051;50.376;19.152;2022-11-20T15:33:23;124.02;;;61.18;;
41305;SDS011;27051;50.376;19.152;2022-11-20T15:35:49;127.57;;;60.60;;
41305;SDS011;27051;50.376;19.152;2022-11-20T15:38:14;135.53;;;64.30;;
41305;SDS011;27051;50.376;19.152;2022-11-20T15:40:40;165.03;;;74.23;;
41305;SDS011;27051;50.376;19.152;2022-11-20T15:43:06;150.53;;;70.08;;
41305;SDS011;27051;50.376;19.152;2022-11-20T15:45:36;141.03;;;68.43;;
41305;SDS011;27051;50.376;19.152;2022-11-20T15:48:09;158.18;;;72.42;;
41305;SDS011;27051;50.376;19.152;2022-11-20T15:50:59;143.07;;;68.25;;